Time;durP1;ratioP1;P1;durP2;ratioP2;P2;SDS_P1;SDS_P2;PMS_P1;PMS_P2;Temp;Humidity;BMP_temperature;BMP_pressure;BME280_temperature;BME280_humidity;BME280_pressure;Samples;Min_cycle;Max_cycle;Signal;HPM_P1;HPM_P2
2021/12/02 00:00:23;;;;;;;7.10;3.47;;;7.20;99.90;;;;;;5078837;28;20204;-84
2021/12/02 00:02:49;;;;;;;7.30;3.50;;;7.00;99.90;;;;;;5079369;28;20173;-87
2021/12/02 00:05:16;;;;;;;6.10;2.93;;;7.00;99.90;;;;;;5069840;28;20284;-84
2021/12/02 00:07:42;;;;;;;6.07;2.70;;;6.90;99.90;;;;;;5059260;28;20168;-87
2021/12/02 00:10:11;;;;;;;7.33;2.83;;;6.90;99.90;;;;;;5049009;28;20614;-90
2021/12/02 00:12:38;;;;;;;5.67;2.60;;;7.00;99.90;;;;;;5061695;28;20215;-89
2021/12/02 00:15:32;;;;;;;8.07;2.30;;;7.10;99.90;;;;;;5058115;28;20184;-86
2021/12/02 00:21:05;;;;;;;6.93;2.67;;;7.00;99.90;;;;;;5079888;28;20177;-87
2021/12/02 00:23:52;;;;;;;5.63;2.27;;;7.00;99.90;;;;;;5078872;28;20183;-83
2021/12/02 00:26:20;;;;;;;4.60;1.73;;;7.00;99.90;;;;;;5078320;28;20153;-89
2021/12/02 00:28:53;;;;;;;6.30;2.13;;;7.10;99.90;;;;;;5071433;28;20191;-86
2021/12/02 00:31:36;;;;;;;4.53;1.67;;;7.10;99.90;;;;;;5071076;28;20225;-86
2021/12/02 00:34:17;;;;;;;4.40;2.00;;;7.10;99.90;;;;;;5059998;28;20173;-85
2021/12/02 00:37:05;;;;;;;5.17;1.83;;;7.20;99.90;;;;;;5065135;28;20255;-80
2021/12/02 00:39:31;;;;;;;5.63;1.93;;;7.10;99.90;;;;;;5076016;28;20256;-84
2021/12/02 00:41:57;;;;;;;6.37;2.10;;;7.10;99.90;;;;;;5072355;28;20188;-86
2021/12/02 00:44:23;;;;;;;9.83;2.47;;;6.90;99.90;;;;;;5061170;28;20185;-90
2021/12/02 00:46:50;;;;;;;7.87;2.80;;;6.90;99.90;;;;;;5056390;28;20173;-90
2021/12/02 00:49:18;;;;;;;10.63;2.73;;;6.90;99.90;;;;;;5057537;28;20524;-85
2021/12/02 00:51:55;;;;;;;7.83;2.83;;;6.80;99.90;;;;;;5052188;28;20169;-87
2021/12/02 00:54:24;;;;;;;10.37;2.43;;;6.80;99.90;;;;;;5056514;28;20176;-90
2021/12/02 00:56:52;;;;;;;4.77;2.00;;;6.70;99.90;;;;;;5057011;28;20169;-88
2021/12/02 00:59:20;;;;;;;7.07;2.07;;;6.80;99.90;;;;;;5050703;28;20657;-88
2021/12/02 01:01:48;;;;;;;6.73;2.10;;;6.80;99.90;;;;;;5048644;28;20245;-87
2021/12/02 01:04:22;;;;;;;7.00;2.10;;;6.90;99.90;;;;;;5056723;28;20169;-90
2021/12/02 01:06:49;;;;;;;6.73;2.07;;;6.90;99.90;;;;;;5058108;28;20181;-88
2021/12/02 01:09:18;;;;;;;5.63;2.10;;;6.80;99.90;;;;;;5039286;28;20177;-86
2021/12/02 01:11:45;;;;;;;9.27;3.03;;;6.90;99.90;;;;;;5054191;28;20222;-88
2021/12/02 01:14:11;;;;;;;9.03;2.67;;;6.70;99.90;;;;;;5055199;28;20181;-88
2021/12/02 01:16:38;;;;;;;7.30;2.93;;;6.60;99.90;;;;;;5059264;28;20201;-89
2021/12/02 01:19:07;;;;;;;10.93;3.20;;;6.70;99.90;;;;;;5069937;28;20267;-90
2021/12/02 01:21:35;;;;;;;10.70;2.97;;;6.70;99.90;;;;;;5055893;28;20188;-89
2021/12/02 01:24:04;;;;;;;8.73;2.50;;;6.80;99.90;;;;;;5062140;28;20193;-91
2021/12/02 01:26:32;;;;;;;6.37;2.20;;;6.80;99.90;;;;;;5059505;28;20230;-90
2021/12/02 01:28:59;;;;;;;9.37;2.50;;;6.90;99.90;;;;;;5055078;28;20166;-86
2021/12/02 01:31:31;;;;;;;4.73;1.63;;;6.80;99.90;;;;;;5071864;28;20169;-85
2021/12/02 01:34:01;;;;;;;6.33;1.63;;;6.90;99.90;;;;;;5063415;28;20159;-86
2021/12/02 01:36:38;;;;;;;7.07;2.03;;;6.90;99.90;;;;;;5055242;28;20181;-89
2021/12/02 01:39:05;;;;;;;4.97;1.77;;;6.80;99.90;;;;;;5065909;28;20234;-84
2021/12/02 01:41:47;;;;;;;10.37;1.90;;;6.70;99.90;;;;;;5060397;28;20724;-86
2021/12/02 01:44:15;;;;;;;6.37;1.90;;;6.70;99.90;;;;;;5060454;28;20579;-89
2021/12/02 01:46:42;;;;;;;7.80;1.97;;;6.70;99.90;;;;;;5056765;28;20184;-89
2021/12/02 01:49:10;;;;;;;5.70;1.70;;;6.60;99.90;;;;;;5057938;28;20192;-90
2021/12/02 01:51:46;;;;;;;8.33;2.70;;;6.60;99.90;;;;;;5056864;28;20230;-91
2021/12/02 01:54:20;;;;;;;4.43;1.70;;;6.50;99.90;;;;;;5056531;28;20175;-90
2021/12/02 01:57:07;;;;;;;5.73;1.90;;;6.40;99.90;;;;;;5056506;28;20234;-90
2021/12/02 01:59:39;;;;;;;5.27;2.07;;;6.30;99.90;;;;;;5056838;28;20254;-91
2021/12/02 02:02:10;;;;;;;6.73;2.37;;;6.20;99.90;;;;;;5057540;28;20165;-90
2021/12/02 02:04:37;;;;;;;9.07;2.20;;;6.20;99.90;;;;;;5054791;28;20212;-90
2021/12/02 02:07:14;;;;;;;8.73;2.60;;;6.10;99.90;;;;;;5060272;28;20192;-89
2021/12/02 02:09:41;;;;;;;8.50;2.50;;;6.00;99.90;;;;;;5063908;28;20173;-82
2021/12/02 02:12:10;;;;;;;9.33;2.63;;;6.20;99.90;;;;;;5073290;28;20173;-90
2021/12/02 02:14:36;;;;;;;7.80;2.77;;;6.30;99.90;;;;;;5069844;28;20162;-86
2021/12/02 02:17:27;;;;;;;8.77;2.93;;;6.40;99.90;;;;;;5078290;28;20203;-83
2021/12/02 02:19:50;;;;;;;10.23;2.60;;;6.40;99.90;;;;;;5077274;28;20200;-83
2021/12/02 02:22:22;;;;;;;10.63;2.90;;;6.40;99.90;;;;;;5058964;28;20596;-91
2021/12/02 02:24:52;;;;;;;8.30;2.60;;;6.40;99.90;;;;;;5046327;28;20578;-91
2021/12/02 02:27:19;;;;;;;10.47;3.13;;;6.40;99.90;;;;;;5060418;28;20211;-89
2021/12/02 02:29:45;;;;;;;7.30;2.83;;;6.30;99.90;;;;;;5069662;28;20168;-89
2021/12/02 02:32:12;;;;;;;6.70;2.47;;;6.30;99.90;;;;;;5058591;28;20188;-91
2021/12/02 02:34:39;;;;;;;8.87;2.33;;;6.30;99.90;;;;;;5054263;28;20181;-91
2021/12/02 02:37:06;;;;;;;8.00;2.70;;;6.40;99.90;;;;;;5070629;28;20200;-85
2021/12/02 02:39:34;;;;;;;6.83;2.00;;;6.40;99.90;;;;;;5076854;28;20193;-89
2021/12/02 02:42:02;;;;;;;6.07;2.03;;;6.40;99.90;;;;;;5077010;28;20189;-84
2021/12/02 02:44:32;;;;;;;6.63;1.67;;;6.20;99.90;;;;;;5076386;28;20179;-90
2021/12/02 02:47:01;;;;;;;4.87;1.33;;;6.30;99.90;;;;;;5055935;28;20165;-89
2021/12/02 02:50:06;;;;;;;5.50;1.90;;;6.20;99.90;;;;;;5054809;28;20181;-90
2021/12/02 02:52:33;;;;;;;5.03;1.30;;;5.90;99.90;;;;;;5055442;28;20656;-88
2021/12/02 02:54:59;;;;;;;5.97;1.20;;;5.90;99.90;;;;;;5053712;28;20548;-89
2021/12/02 02:57:28;;;;;;;4.17;1.30;;;5.80;99.90;;;;;;5046004;28;20169;-88
2021/12/02 03:05:08;;;;;;;4.40;1.17;;;5.50;99.90;;;;;;5055139;28;20177;-89
2021/12/02 03:07:42;;;;;;;5.23;1.67;;;5.60;99.90;;;;;;5057311;28;20156;-89
2021/12/02 03:10:57;;;;;;;6.63;1.20;;;5.40;99.90;;;;;;5048489;28;20625;-89
2021/12/02 03:12:59;;;;;;;2.70;1.03;;;5.60;99.90;;;;;;5055122;28;20217;-89
2021/12/02 03:18:11;;;;;;;5.73;1.40;;;5.60;99.90;;;;;;5049052;28;20271;-91
2021/12/02 03:20:37;;;;;;;5.93;1.30;;;5.60;99.90;;;;;;5053566;28;20216;-88
2021/12/02 03:23:03;;;;;;;3.47;1.33;;;5.70;99.90;;;;;;5055200;28;20200;-89
2021/12/02 03:25:29;;;;;;;2.90;1.40;;;5.70;99.90;;;;;;5058436;28;20195;-90
2021/12/02 03:27:55;;;;;;;5.03;1.50;;;5.70;99.90;;;;;;5062888;28;20244;-89
2021/12/02 03:30:22;;;;;;;4.77;1.80;;;5.70;99.90;;;;;;5054779;28;20177;-89
2021/12/02 03:32:47;;;;;;;4.10;1.43;;;5.70;99.90;;;;;;5053159;28;20255;-91
2021/12/02 03:35:13;;;;;;;4.30;1.37;;;5.80;99.90;;;;;;5053783;28;20173;-91
2021/12/02 03:37:39;;;;;;;4.90;1.87;;;5.80;99.90;;;;;;5052714;28;20181;-90
2021/12/02 03:40:06;;;;;;;4.90;1.80;;;5.70;99.90;;;;;;5053920;28;20220;-89
2021/12/02 03:42:31;;;;;;;4.33;1.63;;;5.80;99.90;;;;;;5045573;28;20177;-89
2021/12/02 03:44:57;;;;;;;4.03;2.10;;;5.80;99.90;;;;;;5062378;28;20262;-89
2021/12/02 03:47:23;;;;;;;11.87;2.90;;;5.80;99.90;;;;;;5058214;28;20176;-91
2021/12/02 03:49:48;;;;;;;9.57;3.17;;;6.00;99.90;;;;;;5055728;28;20184;-89
2021/12/02 03:52:14;;;;;;;11.00;3.73;;;5.80;99.90;;;;;;5065118;28;20149;-89
2021/12/02 03:54:40;;;;;;;9.70;2.97;;;5.50;99.90;;;;;;5058723;28;20649;-88
2021/12/02 03:57:05;;;;;;;7.73;3.17;;;5.20;99.90;;;;;;5058060;28;20184;-88
2021/12/02 03:59:32;;;;;;;7.33;2.43;;;4.80;99.90;;;;;;5050724;28;20232;-88
2021/12/02 04:01:59;;;;;;;6.53;2.47;;;4.80;99.90;;;;;;5066039;28;20153;-88
2021/12/02 04:04:28;;;;;;;4.10;2.13;;;4.80;99.90;;;;;;5077188;28;20153;-84
2021/12/02 04:06:56;;;;;;;6.77;1.90;;;4.80;99.90;;;;;;5071954;28;20232;-87
2021/12/02 04:09:28;;;;;;;8.40;3.43;;;4.70;99.90;;;;;;5080199;28;20161;-83
2021/12/02 04:12:02;;;;;;;9.60;3.07;;;4.70;99.90;;;;;;5059697;28;20161;-82
2021/12/02 04:14:35;;;;;;;8.27;3.20;;;4.80;99.90;;;;;;5058548;28;20215;-87
2021/12/02 04:17:39;;;;;;;9.67;4.20;;;4.80;99.90;;;;;;5058194;28;20189;-87
2021/12/02 04:20:05;;;;;;;12.63;5.40;;;5.00;99.90;;;;;;5038550;28;20193;-89
2021/12/02 04:22:37;;;;;;;12.43;4.73;;;5.20;99.90;;;;;;5045418;28;20173;-90
2021/12/02 04:25:05;;;;;;;16.33;5.70;;;5.30;99.90;;;;;;5051212;28;20227;-89
2021/12/02 04:27:30;;;;;;;18.13;5.43;;;5.50;99.90;;;;;;5045214;28;20525;-90
2021/12/02 04:29:56;;;;;;;13.33;4.40;;;5.60;99.90;;;;;;5065724;28;20183;-81
2021/12/02 04:32:22;;;;;;;14.00;4.33;;;5.50;99.90;;;;;;5079692;28;20208;-86
2021/12/02 04:34:47;;;;;;;7.00;2.27;;;5.40;99.90;;;;;;5079727;28;20225;-84
2021/12/02 04:37:13;;;;;;;7.73;1.90;;;5.40;99.90;;;;;;5064425;28;20217;-88
2021/12/02 04:39:39;;;;;;;6.13;1.57;;;5.40;99.90;;;;;;5063431;28;20559;-90
2021/12/02 04:42:05;;;;;;;4.63;1.00;;;5.50;99.90;;;;;;5068480;28;20330;-89
2021/12/02 04:44:30;;;;;;;10.10;1.73;;;5.30;99.90;;;;;;5072858;28;20259;-89
2021/12/02 04:46:56;;;;;;;3.97;1.17;;;5.30;99.90;;;;;;5070580;28;20216;-90
2021/12/02 04:49:25;;;;;;;3.43;1.77;;;4.90;99.90;;;;;;5060177;28;20176;-89
2021/12/02 04:52:02;;;;;;;3.57;1.40;;;4.90;99.90;;;;;;5048327;28;20169;-89
2021/12/02 04:54:28;;;;;;;3.67;0.90;;;4.80;99.90;;;;;;5049556;28;20181;-90
2021/12/02 04:57:15;;;;;;;3.30;1.17;;;4.90;99.90;;;;;;5040537;28;20185;-89
2021/12/02 04:59:42;;;;;;;1.80;1.10;;;5.00;99.90;;;;;;5057216;28;20197;-90
2021/12/02 05:02:08;;;;;;;2.67;1.40;;;5.20;99.90;;;;;;5050759;28;20196;-89
2021/12/02 05:04:34;;;;;;;5.70;1.80;;;5.10;99.90;;;;;;5057320;28;20187;-89
2021/12/02 05:06:59;;;;;;;4.03;1.83;;;5.20;99.90;;;;;;5056909;28;20169;-90
2021/12/02 05:09:25;;;;;;;3.93;1.77;;;5.30;99.90;;;;;;5046692;28;20574;-90
2021/12/02 05:11:52;;;;;;;3.70;1.50;;;5.10;99.90;;;;;;5060265;28;20169;-89
2021/12/02 05:14:18;;;;;;;3.20;1.53;;;5.10;99.90;;;;;;5059171;28;20187;-89
2021/12/02 05:16:44;;;;;;;3.87;1.60;;;5.20;99.90;;;;;;5062523;28;20197;-88
2021/12/02 05:19:13;;;;;;;3.97;1.60;;;5.20;99.90;;;;;;5065477;28;20196;-89
2021/12/02 05:21:39;;;;;;;3.57;1.40;;;5.10;99.90;;;;;;5056860;28;20173;-84
2021/12/02 05:24:06;;;;;;;5.50;1.87;;;4.90;99.90;;;;;;5070141;28;20176;-84
2021/12/02 05:26:33;;;;;;;6.50;2.07;;;4.80;99.90;;;;;;5053484;28;20178;-89
2021/12/02 05:28:59;;;;;;;7.13;1.93;;;4.80;99.90;;;;;;5078693;28;20181;-83
2021/12/02 05:31:27;;;;;;;4.07;1.60;;;4.80;99.90;;;;;;5075749;28;20172;-90
2021/12/02 05:33:52;;;;;;;4.33;1.60;;;4.60;99.90;;;;;;5052622;28;20203;-89
2021/12/02 05:36:18;;;;;;;3.27;1.40;;;4.50;99.90;;;;;;5068724;28;20164;-89
2021/12/02 05:38:47;;;;;;;3.90;1.60;;;4.40;99.90;;;;;;5066759;28;20164;-88
2021/12/02 05:41:14;;;;;;;4.73;1.50;;;4.30;99.90;;;;;;5058945;28;20158;-82
2021/12/02 05:43:40;;;;;;;4.13;1.60;;;4.40;99.90;;;;;;5059416;28;20177;-86
2021/12/02 05:46:06;;;;;;;2.67;1.00;;;4.10;99.90;;;;;;5080097;28;20185;-85
2021/12/02 05:48:43;;;;;;;4.10;1.40;;;4.20;99.90;;;;;;5078125;28;20175;-80
2021/12/02 05:51:19;;;;;;;3.37;1.20;;;4.30;99.90;;;;;;5076216;28;20181;-87
2021/12/02 05:53:47;;;;;;;4.67;1.47;;;4.30;99.90;;;;;;5071379;28;20272;-87
2021/12/02 05:56:16;;;;;;;3.77;1.07;;;4.20;99.90;;;;;;5059971;28;20196;-87
2021/12/02 05:58:54;;;;;;;4.17;1.30;;;4.20;99.90;;;;;;5054243;28;20594;-87
2021/12/02 06:01:26;;;;;;;2.60;1.20;;;4.30;99.90;;;;;;5057819;28;20180;-88
2021/12/02 06:03:51;;;;;;;4.10;1.20;;;4.30;99.90;;;;;;5057437;28;20225;-87
2021/12/02 06:06:17;;;;;;;3.73;1.53;;;4.50;99.90;;;;;;5050493;28;20212;-84
2021/12/02 06:08:43;;;;;;;4.43;1.57;;;4.60;99.90;;;;;;5053953;28;20180;-89
2021/12/02 06:11:09;;;;;;;7.50;1.90;;;4.60;99.90;;;;;;5065459;28;20177;-84
2021/12/02 06:13:38;;;;;;;5.10;2.57;;;4.70;99.90;;;;;;5059966;28;20280;-88
2021/12/02 06:16:04;;;;;;;7.60;3.93;;;4.70;99.90;;;;;;5057225;28;20169;-89
2021/12/02 06:18:30;;;;;;;11.07;4.67;;;4.70;99.90;;;;;;5054860;28;20616;-87
2021/12/02 06:20:56;;;;;;;11.13;5.73;;;4.60;99.90;;;;;;5063650;28;20219;-83
2021/12/02 06:23:23;;;;;;;10.13;5.17;;;4.50;99.90;;;;;;5077070;28;20169;-81
2021/12/02 06:25:49;;;;;;;14.57;5.70;;;4.50;99.90;;;;;;5065730;28;20179;-85
2021/12/02 06:28:17;;;;;;;16.03;6.03;;;4.60;99.90;;;;;;5063339;28;20309;-79
2021/12/02 06:30:45;;;;;;;11.60;4.80;;;4.60;99.90;;;;;;5073367;28;20177;-83
2021/12/02 06:33:11;;;;;;;11.77;4.87;;;4.50;99.90;;;;;;5059736;28;20176;-88
2021/12/02 06:35:39;;;;;;;5.97;2.83;;;4.30;99.90;;;;;;5072226;28;20191;-84
2021/12/02 06:38:07;;;;;;;11.13;4.00;;;4.10;99.90;;;;;;5072106;28;20173;-88
2021/12/02 06:40:40;;;;;;;10.07;5.13;;;4.10;99.90;;;;;;5070044;28;20291;-90
2021/12/02 06:43:09;;;;;;;8.03;4.10;;;4.10;99.90;;;;;;5062980;28;20176;-90
2021/12/02 06:45:39;;;;;;;12.30;4.20;;;4.20;99.90;;;;;;5055185;28;20180;-87
2021/12/02 06:48:05;;;;;;;7.40;3.60;;;4.20;99.90;;;;;;5048020;28;20289;-87
2021/12/02 06:50:34;;;;;;;7.83;4.00;;;4.40;99.90;;;;;;5057707;28;20720;-89
2021/12/02 06:53:01;;;;;;;13.17;4.33;;;4.40;99.90;;;;;;5055323;28;20162;-88
2021/12/02 06:55:27;;;;;;;10.23;4.20;;;4.60;99.90;;;;;;5048913;28;20284;-87
2021/12/02 06:57:56;;;;;;;5.40;2.20;;;4.50;99.90;;;;;;5061166;28;20235;-85
2021/12/02 07:00:22;;;;;;;5.23;2.93;;;4.40;99.90;;;;;;5054966;28;20212;-87
2021/12/02 07:02:53;;;;;;;8.40;2.53;;;4.40;99.90;;;;;;5056623;28;20184;-88
2021/12/02 07:05:20;;;;;;;5.53;2.43;;;4.60;99.90;;;;;;5055954;28;20232;-91
2021/12/02 07:07:48;;;;;;;4.97;2.33;;;4.50;99.90;;;;;;5042118;28;20248;-86
2021/12/02 07:10:23;;;;;;;9.13;2.10;;;4.30;99.90;;;;;;5045225;28;20549;-89
2021/12/02 07:12:53;;;;;;;4.53;1.60;;;4.40;99.90;;;;;;5056017;28;20293;-91
2021/12/02 07:15:28;;;;;;;6.70;1.20;;;4.30;99.90;;;;;;5058864;28;20272;-88
2021/12/02 07:17:56;;;;;;;5.77;1.70;;;4.30;99.90;;;;;;5057032;28;20211;-90
2021/12/02 07:20:29;;;;;;;5.40;1.20;;;4.20;99.90;;;;;;5045198;28;20208;-89
2021/12/02 07:22:57;;;;;;;6.67;1.57;;;3.80;99.90;;;;;;5052238;28;20192;-87
2021/12/02 07:25:23;;;;;;;3.87;1.53;;;3.50;99.90;;;;;;5069607;28;20218;-88
2021/12/02 07:27:49;;;;;;;2.37;1.23;;;3.20;99.90;;;;;;5063304;28;20211;-89
2021/12/02 07:30:15;;;;;;;2.87;1.07;;;3.00;99.90;;;;;;5064338;28;20175;-87
2021/12/02 07:32:42;;;;;;;2.80;1.17;;;2.90;99.90;;;;;;5066116;28;20168;-89
2021/12/02 07:35:13;;;;;;;5.13;1.37;;;2.90;99.90;;;;;;5056479;28;20187;-87
2021/12/02 07:37:45;;;;;;;2.60;1.20;;;2.90;99.90;;;;;;5059187;28;20230;-87
2021/12/02 07:40:12;;;;;;;2.40;1.30;;;2.70;99.90;;;;;;5061869;28;20272;-89
2021/12/02 07:42:38;;;;;;;2.63;1.40;;;2.60;99.90;;;;;;5062010;28;20169;-85
2021/12/02 07:45:05;;;;;;;2.87;1.20;;;2.70;99.90;;;;;;5058190;28;20227;-84
2021/12/02 07:47:33;;;;;;;1.53;1.13;;;2.60;99.90;;;;;;5040587;28;20615;-89
2021/12/02 07:49:59;;;;;;;1.77;1.10;;;2.60;99.90;;;;;;5053919;28;20629;-85
2021/12/02 07:52:26;;;;;;;2.07;1.40;;;2.60;99.90;;;;;;5072246;28;20268;-86
2021/12/02 07:54:53;;;;;;;1.47;1.20;;;2.60;99.90;;;;;;5066134;28;20193;-84
2021/12/02 07:57:19;;;;;;;1.37;1.07;;;2.60;99.90;;;;;;5046482;28;20178;-80
2021/12/02 07:59:49;;;;;;;2.10;1.33;;;2.60;99.90;;;;;;5045842;28;20202;-79
2021/12/02 08:02:16;;;;;;;3.27;1.43;;;2.80;99.90;;;;;;5063607;28;20157;-86
2021/12/02 08:04:44;;;;;;;4.37;1.57;;;2.90;99.90;;;;;;5062400;28;20177;-85
2021/12/02 08:07:27;;;;;;;3.17;1.50;;;2.90;99.90;;;;;;5049004;28;20187;-86
2021/12/02 08:10:30;;;;;;;2.73;1.50;;;2.90;99.90;;;;;;5052152;28;20180;-88
2021/12/02 08:13:08;;;;;;;3.87;2.00;;;3.20;99.90;;;;;;5059019;28;20188;-86
2021/12/02 08:15:35;;;;;;;4.63;2.53;;;3.30;99.90;;;;;;5059104;28;20171;-84
2021/12/02 08:18:01;;;;;;;4.40;2.50;;;3.40;99.90;;;;;;5058129;28;20193;-78
2021/12/02 08:20:29;;;;;;;4.23;2.80;;;3.30;99.90;;;;;;5050561;28;20236;-85
2021/12/02 08:22:55;;;;;;;6.03;2.30;;;3.50;99.90;;;;;;5060740;28;20169;-83
2021/12/02 08:25:22;;;;;;;4.37;3.80;;;3.60;99.90;;;;;;5051629;28;20195;-85
2021/12/02 08:27:49;;;;;;;5.30;2.97;;;3.60;99.90;;;;;;5055910;28;20178;-85
2021/12/02 08:30:16;;;;;;;3.77;2.73;;;3.70;99.90;;;;;;5057110;28;20260;-88
2021/12/02 08:32:42;;;;;;;6.47;4.13;;;3.60;99.90;;;;;;5056072;28;20251;-86
2021/12/02 08:35:10;;;;;;;5.37;3.93;;;3.50;99.90;;;;;;5061528;28;20153;-87
2021/12/02 08:37:40;;;;;;;8.17;3.90;;;3.40;99.90;;;;;;5057234;28;20185;-85
2021/12/02 08:40:08;;;;;;;8.50;4.73;;;3.40;99.90;;;;;;5057171;28;20579;-84
2021/12/02 08:42:33;;;;;;;10.70;7.23;;;3.20;99.90;;;;;;5058904;28;20690;-84
2021/12/02 08:45:01;;;;;;;9.37;4.60;;;3.20;99.90;;;;;;5074223;28;20164;-85
2021/12/02 08:47:28;;;;;;;10.20;5.27;;;3.00;99.90;;;;;;5093399;28;20204;-83
2021/12/02 08:49:55;;;;;;;12.30;4.87;;;2.90;99.90;;;;;;5089932;28;20169;-83
2021/12/02 08:52:24;;;;;;;9.90;5.07;;;2.90;99.90;;;;;;5077843;28;20173;-83
2021/12/02 08:54:51;;;;;;;15.10;5.97;;;2.80;99.90;;;;;;5074470;28;20208;-80
2021/12/02 08:57:30;;;;;;;17.33;5.90;;;2.90;99.90;;;;;;5069828;28;20177;-85
2021/12/02 09:00:05;;;;;;;16.63;5.80;;;2.80;99.90;;;;;;5057881;28;20602;-85
2021/12/02 09:02:34;;;;;;;11.27;5.67;;;2.90;99.90;;;;;;5052232;28;20169;-87
2021/12/02 09:05:01;;;;;;;14.80;7.37;;;3.20;99.90;;;;;;5037887;28;20174;-83
2021/12/02 09:07:30;;;;;;;13.67;7.90;;;3.10;99.90;;;;;;5036270;28;20185;-85
2021/12/02 09:09:56;;;;;;;13.37;6.60;;;3.30;99.90;;;;;;5036932;28;20190;-83
2021/12/02 09:12:23;;;;;;;13.30;6.70;;;3.40;99.90;;;;;;5043844;28;20176;-82
2021/12/02 09:14:50;;;;;;;17.13;8.13;;;3.30;99.90;;;;;;5077925;28;20185;-84
2021/12/02 09:17:17;;;;;;;12.63;7.83;;;3.40;99.90;;;;;;5079121;28;20177;-83
2021/12/02 09:19:43;;;;;;;11.37;6.73;;;3.40;99.90;;;;;;5075657;28;20217;-78
2021/12/02 09:22:09;;;;;;;13.23;6.90;;;3.40;99.90;;;;;;5076280;28;20175;-82
2021/12/02 09:24:36;;;;;;;10.83;6.20;;;3.60;99.90;;;;;;5066646;28;20322;-81
2021/12/02 09:27:14;;;;;;;15.53;7.77;;;3.50;99.90;;;;;;5065990;28;20169;-88
2021/12/02 09:29:41;;;;;;;10.57;6.20;;;3.70;99.90;;;;;;5057948;28;20189;-79
2021/12/02 09:32:11;;;;;;;15.90;7.07;;;3.70;99.90;;;;;;5058338;28;20250;-85
2021/12/02 09:34:37;;;;;;;13.60;7.33;;;3.90;99.90;;;;;;5056271;28;20167;-87
2021/12/02 09:37:03;;;;;;;16.33;8.17;;;4.00;99.90;;;;;;5056288;28;20196;-87
2021/12/02 09:39:31;;;;;;;15.67;7.37;;;4.20;99.90;;;;;;5050747;28;20689;-82
2021/12/02 09:41:57;;;;;;;13.27;7.03;;;4.30;99.90;;;;;;5057236;28;20157;-86
2021/12/02 09:44:23;;;;;;;14.57;5.90;;;4.50;99.90;;;;;;5061557;28;20172;-85
2021/12/02 09:46:48;;;;;;;9.20;3.53;;;4.40;99.90;;;;;;5060793;28;20168;-87
2021/12/02 09:49:16;;;;;;;8.40;2.90;;;4.30;99.90;;;;;;5060627;28;20676;-84
2021/12/02 09:52:00;;;;;;;9.53;2.90;;;4.30;99.90;;;;;;5058862;28;20161;-86
2021/12/02 09:55:03;;;;;;;8.83;2.50;;;4.30;99.90;;;;;;5060490;28;20240;-88
2021/12/02 09:57:32;;;;;;;4.80;2.33;;;4.30;99.90;;;;;;5057882;28;20177;-86
2021/12/02 09:59:58;;;;;;;9.03;2.63;;;4.40;99.90;;;;;;5059239;28;20234;-86
2021/12/02 10:02:24;;;;;;;5.90;2.67;;;4.30;99.90;;;;;;5059358;28;20173;-87
2021/12/02 10:04:55;;;;;;;4.97;2.17;;;4.30;99.90;;;;;;5062164;28;20593;-84
2021/12/02 10:07:30;;;;;;;4.20;2.00;;;4.20;99.90;;;;;;5060040;28;20181;-86
2021/12/02 10:13:24;;;;;;;6.93;2.53;;;3.90;99.90;;;;;;5056233;28;20172;-81
2021/12/02 10:16:16;;;;;;;5.07;2.23;;;3.70;99.90;;;;;;5075983;28;20160;-88
2021/12/02 10:19:06;;;;;;;5.87;2.70;;;3.70;99.90;;;;;;5076285;28;20147;-86
2021/12/02 10:24:05;;;;;;;5.97;2.67;;;3.30;99.90;;;;;;5054047;28;20561;-87
2021/12/02 10:26:37;;;;;;;7.00;2.80;;;3.30;99.90;;;;;;5058489;28;20298;-83
2021/12/02 10:29:15;;;;;;;5.57;2.23;;;3.10;99.90;;;;;;5066049;28;20214;-88
2021/12/02 10:31:46;;;;;;;8.50;2.47;;;3.20;99.90;;;;;;5069877;28;20191;-84
2021/12/02 10:34:15;;;;;;;7.03;3.17;;;3.30;99.90;;;;;;5056891;28;20173;-79
2021/12/02 10:36:43;;;;;;;6.07;3.10;;;3.30;99.90;;;;;;5057753;28;20543;-86
2021/12/02 10:39:21;;;;;;;9.03;3.60;;;3.40;99.90;;;;;;5055685;28;20201;-84
2021/12/02 10:42:05;;;;;;;7.43;3.67;;;3.50;99.90;;;;;;5054043;28;20173;-85
2021/12/02 10:44:35;;;;;;;6.13;3.17;;;3.60;99.90;;;;;;5054006;28;20161;-85
2021/12/02 10:47:15;;;;;;;7.30;3.53;;;3.60;99.90;;;;;;5058039;28;20219;-80
2021/12/02 10:49:44;;;;;;;4.50;3.10;;;3.80;99.90;;;;;;5054164;28;20172;-87
2021/12/02 10:52:14;;;;;;;9.47;3.53;;;3.80;99.90;;;;;;5055416;28;20224;-88
2021/12/02 10:54:42;;;;;;;6.07;3.20;;;4.00;99.90;;;;;;5071428;28;20187;-87
2021/12/02 10:57:14;;;;;;;6.17;3.90;;;4.10;99.90;;;;;;5056018;28;20562;-87
2021/12/02 10:59:43;;;;;;;7.90;3.43;;;4.00;99.90;;;;;;5057836;28;20225;-86
2021/12/02 11:02:22;;;;;;;6.73;4.23;;;3.90;99.90;;;;;;5061577;28;20632;-82
2021/12/02 11:04:55;;;;;;;7.87;3.30;;;3.50;99.90;;;;;;5061684;28;20168;-87
2021/12/02 11:07:28;;;;;;;6.30;3.40;;;3.40;99.90;;;;;;5064590;28;20231;-83
2021/12/02 11:09:56;;;;;;;8.90;4.50;;;3.60;99.90;;;;;;5062944;28;20195;-87
2021/12/02 11:12:24;;;;;;;7.03;4.40;;;3.70;99.90;;;;;;5067136;28;20164;-88
2021/12/02 11:14:56;;;;;;;9.87;4.83;;;3.60;99.90;;;;;;5068811;28;20234;-90
2021/12/02 11:17:30;;;;;;;8.77;5.00;;;3.70;99.90;;;;;;5065441;28;20196;-86
2021/12/02 11:19:59;;;;;;;7.70;5.13;;;3.70;99.90;;;;;;5065193;28;20219;-86
2021/12/02 11:22:28;;;;;;;7.47;4.13;;;3.70;99.90;;;;;;5064043;28;20192;-91
2021/12/02 11:24:54;;;;;;;7.57;3.97;;;3.80;99.90;;;;;;5063865;28;20229;-91
2021/12/02 11:27:33;;;;;;;6.57;3.57;;;3.90;99.90;;;;;;5062462;28;20179;-87
2021/12/02 11:30:18;;;;;;;5.80;4.00;;;3.90;99.90;;;;;;5062401;28;20175;-85
2021/12/02 11:32:53;;;;;;;6.27;3.80;;;3.90;99.90;;;;;;5063107;28;20194;-89
2021/12/02 11:35:23;;;;;;;7.47;4.30;;;3.80;99.90;;;;;;5063225;28;20244;-82
2021/12/02 11:38:03;;;;;;;8.10;4.60;;;3.70;99.90;;;;;;5053362;28;20178;-84
2021/12/02 11:40:42;;;;;;;7.90;4.70;;;3.80;99.90;;;;;;5045682;28;20274;-85
2021/12/02 11:43:10;;;;;;;5.70;4.27;;;3.70;99.90;;;;;;5045375;28;20166;-85
2021/12/02 11:45:43;;;;;;;8.60;5.13;;;3.70;99.90;;;;;;5041626;28;20173;-87
2021/12/02 11:48:11;;;;;;;7.80;5.00;;;3.50;99.90;;;;;;5048066;28;20169;-85
2021/12/02 11:50:37;;;;;;;9.87;5.17;;;3.70;99.90;;;;;;5048618;28;20267;-87
2021/12/02 11:53:03;;;;;;;7.97;4.90;;;3.60;99.90;;;;;;5055463;28;20171;-82
2021/12/02 11:55:38;;;;;;;6.23;3.83;;;3.70;99.90;;;;;;5065469;28;20591;-91
2021/12/02 11:58:04;;;;;;;7.60;4.90;;;3.70;99.90;;;;;;5066352;28;20260;-89
2021/12/02 12:00:34;;;;;;;9.27;5.60;;;3.80;99.90;;;;;;5063787;28;20204;-90
2021/12/02 12:03:18;;;;;;;11.20;6.33;;;3.70;99.90;;;;;;5063821;28;20616;-89
2021/12/02 12:06:03;;;;;;;10.47;7.03;;;3.70;99.90;;;;;;5048472;28;20230;-88
2021/12/02 12:08:38;;;;;;;15.67;9.43;;;3.70;99.90;;;;;;5063419;28;20160;-90
2021/12/02 12:11:33;;;;;;;11.30;6.93;;;3.80;99.90;;;;;;5062408;28;20168;-88
2021/12/02 12:14:05;;;;;;;11.67;10.13;;;4.00;99.90;;;;;;5064216;28;20238;-91
2021/12/02 12:16:33;;;;;;;9.77;5.10;;;4.00;99.90;;;;;;5061509;28;20185;-90
2021/12/02 12:19:26;;;;;;;7.47;4.57;;;4.00;99.90;;;;;;5065150;28;20165;-89
2021/12/02 12:22:00;;;;;;;8.13;4.83;;;4.10;99.90;;;;;;5077214;28;20172;-88
2021/12/02 12:24:47;;;;;;;6.97;5.00;;;4.10;99.90;;;;;;5074376;28;20644;-89
2021/12/02 12:27:19;;;;;;;6.27;4.37;;;4.20;99.90;;;;;;5079933;28;20157;-84
2021/12/02 12:30:13;;;;;;;9.30;5.83;;;4.20;99.90;;;;;;5080233;28;20157;-82
2021/12/02 12:35:30;;;;;;;5.43;3.70;;;4.30;99.90;;;;;;5060022;28;20165;-87
2021/12/02 12:38:24;;;;;;;4.73;2.93;;;4.40;99.90;;;;;;5052463;28;20192;-80
2021/12/02 12:40:57;;;;;;;5.00;3.33;;;4.30;99.90;;;;;;5042104;28;20281;-89
2021/12/02 12:43:33;;;;;;;5.93;3.63;;;4.30;99.90;;;;;;5050600;28;20165;-89
2021/12/02 12:46:12;;;;;;;6.67;3.40;;;4.30;99.90;;;;;;5065090;28;20145;-88
2021/12/02 12:48:39;;;;;;;5.10;3.20;;;4.40;99.90;;;;;;5065863;28;20251;-88
2021/12/02 12:51:25;;;;;;;9.47;4.07;;;4.60;99.90;;;;;;5062233;28;20238;-83
2021/12/02 12:53:52;;;;;;;4.63;3.63;;;4.80;99.90;;;;;;5079023;28;20279;-87
2021/12/02 12:56:30;;;;;;;5.93;3.57;;;4.90;99.90;;;;;;5079028;28;20171;-85
2021/12/02 12:58:59;;;;;;;4.70;3.20;;;5.10;99.90;;;;;;5077667;28;20193;-84
2021/12/02 13:01:26;;;;;;;6.10;3.10;;;5.20;99.90;;;;;;5076983;28;20181;-78
2021/12/02 13:04:20;;;;;;;5.60;3.00;;;5.10;99.90;;;;;;5066119;28;20165;-83
2021/12/02 13:07:22;;;;;;;4.57;3.07;;;5.20;99.90;;;;;;5062611;28;20161;-90
2021/12/02 13:10:08;;;;;;;4.50;2.70;;;5.30;99.90;;;;;;5045314;28;20184;-90
2021/12/02 13:12:47;;;;;;;4.37;2.70;;;5.20;99.90;;;;;;5069475;28;20165;-88
2021/12/02 13:15:21;;;;;;;3.50;1.93;;;5.40;99.90;;;;;;5070159;28;20244;-85
2021/12/02 13:17:52;;;;;;;3.47;2.10;;;5.40;99.90;;;;;;5058130;28;20263;-89
2021/12/02 13:20:50;;;;;;;9.93;2.77;;;5.40;99.90;;;;;;5088896;28;20245;-91
2021/12/02 13:23:32;;;;;;;3.93;2.13;;;5.40;99.90;;;;;;5082795;28;20176;-84
2021/12/02 13:26:10;;;;;;;4.00;2.33;;;5.40;99.90;;;;;;5064884;28;20192;-89
2021/12/02 13:28:42;;;;;;;5.10;2.50;;;5.20;99.90;;;;;;5077604;28;20191;-87
2021/12/02 13:31:11;;;;;;;3.77;1.93;;;5.10;99.90;;;;;;5057189;28;20248;-85
2021/12/02 13:33:39;;;;;;;3.13;1.70;;;4.80;99.90;;;;;;5067004;28;20165;-86